<?xml version="1.0" encoding="UTF-8" standalone="no" ?>
<gpx xmlns="http://www.topografix.com/GPX/1/1" xmlns:xsi="http://www.w3.org/2001/XMLSchema-instance" xsi:schemaLocation="http://www.topografix.com/GPX/1/1 http://www.topografix.com/GPX/1/1/gpx.xsd" version="1.1" creator="VisuGPX - https://www.visugpx.com">
  <metadata>
    <name>luzech 6 descentes</name>
    <desc><![CDATA[parcours typé enduro avec de belles descentes]]></desc>
  </metadata>
  <trk>
    <name><![CDATA[2014-04-01-08-18-57]]></name>
    <trkseg>
      <trkpt lat="44.43861" lon="1.31693">
        <ele>294.723</ele>
        <time>2014-04-01T11:51:47Z</time>
      </trkpt>
      <trkpt lat="44.43866" lon="1.31683">
        <ele>294.564</ele>
        <time>2014-04-01T11:51:49Z</time>
      </trkpt>
      <trkpt lat="44.43871" lon="1.31663">
        <ele>293.093</ele>
        <time>2014-04-01T11:51:53Z</time>
      </trkpt>
      <trkpt lat="44.43887" lon="1.31647">
        <ele>292.794</ele>
        <time>2014-04-01T11:51:57Z</time>
      </trkpt>
      <trkpt lat="44.43897" lon="1.31637">
        <ele>292.494</ele>
        <time>2014-04-01T11:51:59Z</time>
      </trkpt>
      <trkpt lat="44.43918" lon="1.31614">
        <ele>292.584</ele>
        <time>2014-04-01T11:52:04Z</time>
      </trkpt>
      <trkpt lat="44.43922" lon="1.316">
        <ele>292.073</ele>
        <time>2014-04-01T11:52:06Z</time>
      </trkpt>
      <trkpt lat="44.43929" lon="1.31555">
        <ele>289.021</ele>
        <time>2014-04-01T11:52:11Z</time>
      </trkpt>
      <trkpt lat="44.43934" lon="1.31538">
        <ele>287.371</ele>
        <time>2014-04-01T11:52:13Z</time>
      </trkpt>
      <trkpt lat="44.43943" lon="1.3152">
        <ele>286.032</ele>
        <time>2014-04-01T11:52:16Z</time>
      </trkpt>
      <trkpt lat="44.43954" lon="1.31497">
        <ele>284.322</ele>
        <time>2014-04-01T11:52:20Z</time>
      </trkpt>
      <trkpt lat="44.43957" lon="1.3147">
        <ele>281.931</ele>
        <time>2014-04-01T11:52:24Z</time>
      </trkpt>
      <trkpt lat="44.43966" lon="1.31437">
        <ele>278.851</ele>
        <time>2014-04-01T11:52:28Z</time>
      </trkpt>
      <trkpt lat="44.4398" lon="1.31412">
        <ele>278.775</ele>
        <time>2014-04-01T11:52:32Z</time>
      </trkpt>
      <trkpt lat="44.43994" lon="1.31399">
        <ele>281.707</ele>
        <time>2014-04-01T11:52:37Z</time>
      </trkpt>
      <trkpt lat="44.44003" lon="1.31387">
        <ele>282.975</ele>
        <time>2014-04-01T11:52:42Z</time>
      </trkpt>
      <trkpt lat="44.44013" lon="1.31363">
        <ele>283.115</ele>
        <time>2014-04-01T11:52:47Z</time>
      </trkpt>
      <trkpt lat="44.44025" lon="1.31337">
        <ele>282.564</ele>
        <time>2014-04-01T11:52:52Z</time>
      </trkpt>
      <trkpt lat="44.44044" lon="1.31309">
        <ele>282.204</ele>
        <time>2014-04-01T11:52:57Z</time>
      </trkpt>
      <trkpt lat="44.4406" lon="1.31292">
        <ele>281.143</ele>
        <time>2014-04-01T11:53:01Z</time>
      </trkpt>
      <trkpt lat="44.44068" lon="1.31271">
        <ele>277.581</ele>
        <time>2014-04-01T11:53:05Z</time>
      </trkpt>
      <trkpt lat="44.44072" lon="1.31251">
        <ele>273.71</ele>
        <time>2014-04-01T11:53:09Z</time>
      </trkpt>
      <trkpt lat="44.44067" lon="1.31241">
        <ele>271.428</ele>
        <time>2014-04-01T11:53:11Z</time>
      </trkpt>
      <trkpt lat="44.44058" lon="1.31221">
        <ele>265.699</ele>
        <time>2014-04-01T11:53:16Z</time>
      </trkpt>
      <trkpt lat="44.4406" lon="1.31211">
        <ele>263.139</ele>
        <time>2014-04-01T11:53:18Z</time>
      </trkpt>
      <trkpt lat="44.44059" lon="1.3119">
        <ele>257.668</ele>
        <time>2014-04-01T11:53:22Z</time>
      </trkpt>
      <trkpt lat="44.44054" lon="1.31172">
        <ele>252.337</ele>
        <time>2014-04-01T11:53:26Z</time>
      </trkpt>
      <trkpt lat="44.44054" lon="1.31145">
        <ele>243.897</ele>
        <time>2014-04-01T11:53:32Z</time>
      </trkpt>
      <trkpt lat="44.44059" lon="1.31124">
        <ele>237.077</ele>
        <time>2014-04-01T11:53:37Z</time>
      </trkpt>
      <trkpt lat="44.44069" lon="1.31112">
        <ele>232.249</ele>
        <time>2014-04-01T11:53:41Z</time>
      </trkpt>
      <trkpt lat="44.44074" lon="1.31107">
        <ele>230.46</ele>
        <time>2014-04-01T11:53:43Z</time>
      </trkpt>
      <trkpt lat="44.44084" lon="1.31089">
        <ele>225.548</ele>
        <time>2014-04-01T11:53:47Z</time>
      </trkpt>
      <trkpt lat="44.44087" lon="1.31087">
        <ele>224.869</ele>
        <time>2014-04-01T11:53:48Z</time>
      </trkpt>
      <trkpt lat="44.44098" lon="1.3107">
        <ele>220.199</ele>
        <time>2014-04-01T11:53:53Z</time>
      </trkpt>
      <trkpt lat="44.44102" lon="1.3106">
        <ele>217.798</ele>
        <time>2014-04-01T11:53:55Z</time>
      </trkpt>
      <trkpt lat="44.44114" lon="1.3105">
        <ele>214.17</ele>
        <time>2014-04-01T11:53:59Z</time>
      </trkpt>
      <trkpt lat="44.44114" lon="1.31043">
        <ele>211.838</ele>
        <time>2014-04-01T11:54:01Z</time>
      </trkpt>
      <trkpt lat="44.44106" lon="1.31038">
        <ele>209.549</ele>
        <time>2014-04-01T11:54:03Z</time>
      </trkpt>
      <trkpt lat="44.44096" lon="1.31036">
        <ele>207.53</ele>
        <time>2014-04-01T11:54:05Z</time>
      </trkpt>
      <trkpt lat="44.44083" lon="1.31043">
        <ele>205.572</ele>
        <time>2014-04-01T11:54:10Z</time>
      </trkpt>
      <trkpt lat="44.44072" lon="1.3104">
        <ele>203.871</ele>
        <time>2014-04-01T11:54:13Z</time>
      </trkpt>
      <trkpt lat="44.44063" lon="1.31032">
        <ele>201</ele>
        <time>2014-04-01T11:54:16Z</time>
      </trkpt>
      <trkpt lat="44.44052" lon="1.31012">
        <ele>193.718</ele>
        <time>2014-04-01T11:54:21Z</time>
      </trkpt>
      <trkpt lat="44.44037" lon="1.31">
        <ele>187.439</ele>
        <time>2014-04-01T11:54:26Z</time>
      </trkpt>
      <trkpt lat="44.44023" lon="1.30989">
        <ele>181.924</ele>
        <time>2014-04-01T11:54:31Z</time>
      </trkpt>
      <trkpt lat="44.44017" lon="1.30985">
        <ele>179.588</ele>
        <time>2014-04-01T11:54:33Z</time>
      </trkpt>
      <trkpt lat="44.44004" lon="1.30981">
        <ele>176.78</ele>
        <time>2014-04-01T11:54:36Z</time>
      </trkpt>
      <trkpt lat="44.43985" lon="1.30977">
        <ele>173.33</ele>
        <time>2014-04-01T11:54:40Z</time>
      </trkpt>
      <trkpt lat="44.43971" lon="1.30973">
        <ele>171.441</ele>
        <time>2014-04-01T11:54:44Z</time>
      </trkpt>
      <trkpt lat="44.43971" lon="1.30971">
        <ele>171.021</ele>
        <time>2014-04-01T11:54:45Z</time>
      </trkpt>
      <trkpt lat="44.43981" lon="1.30959">
        <ele>168.561</ele>
        <time>2014-04-01T11:54:49Z</time>
      </trkpt>
      <trkpt lat="44.43997" lon="1.30938">
        <ele>165.71</ele>
        <time>2014-04-01T11:54:54Z</time>
      </trkpt>
      <trkpt lat="44.44007" lon="1.3092">
        <ele>162.419</ele>
        <time>2014-04-01T11:54:58Z</time>
      </trkpt>
      <trkpt lat="44.44022" lon="1.30916">
        <ele>162.081</ele>
        <time>2014-04-01T11:55:04Z</time>
      </trkpt>
      <trkpt lat="44.44027" lon="1.30915">
        <ele>161.972</ele>
        <time>2014-04-01T11:55:06Z</time>
      </trkpt>
      <trkpt lat="44.44045" lon="1.3091">
        <ele>163.694</ele>
        <time>2014-04-01T11:55:13Z</time>
      </trkpt>
      <trkpt lat="44.4406" lon="1.30904">
        <ele>166.416</ele>
        <time>2014-04-01T11:55:19Z</time>
      </trkpt>
      <trkpt lat="44.44076" lon="1.30896">
        <ele>168.735</ele>
        <time>2014-04-01T11:55:26Z</time>
      </trkpt>
      <trkpt lat="44.4408" lon="1.30894">
        <ele>168.968</ele>
        <time>2014-04-01T11:55:30Z</time>
      </trkpt>
    </trkseg>
  </trk>
</gpx>